Karlovy Vary, Czech Republic

8:33 PM CET on January 25, 2015 (GMT +0100)
IKARLOVA12 | Change Station
CLOSE
Current Station
Personal Weather Station
Location: Hroznetin, Karlovarsky kraj
Elevation: 1476 ft
Nearby Weather Stations

Elev 1476 ft 50.31 °N, 12.87 °E | Updated 2 minutes ago

Snow
Snow
31.3 °F
Feels Like 31 °F
N
0.0
Wind Variable Wind from West
Gusts 1.0 mph

Today
High -- | Low -- °F
--% Chance of Precip.
Yesterday
High -- | Low -- °F
Precip. -- in
7:52 AM 4:49 PM
Waxing Crescent, 35% visible
Pressure 30.27 in
Visibility 0.6 miles
Clouds
Windchill 31 °F
Dew Point 30 °F
Humidity 94%
Rainfall 0.03 in
Snow Depth Not available.
UV Not available.
Pollen Not available.
Air Quality Not available.
Flu Activity Not available.
METAR EDQM 251920Z 24004KT 0900 R26/P2000N SN VV/// M01/M02 Q1025

More Conditions Fewer Conditions

Pressure 30.27 in
Visibility 0.6 miles
Clouds
Windchill 31 °F
Dew Point 30 °F
Humidity 94%
Rainfall 0.03 in
Snow Depth Not available.
UV Not available.
Pollen Not available.
Air Quality Not available.
Flu Activity Not available.
METAR EDQM 251920Z 24004KT 0900 R26/P2000N SN VV/// M01/M02 Q1025

More Conditions Fewer Conditions

10-Day Weather Forecast

Almanac

Astronomy

Jan. 25, 2015 Rise Set
Actual Time
Civil Twilight
Nautical Twilight
Astronomical Twilight
Moon
Length of Visible Light
Length of Day
Tomorrow will be .
, % of the Moon is Illuminated

Today's Extremes

Country Highs Country Lows

Community

WunderPhotos

Upload Photos

1,790,030 photos uploaded!

WunderBlogs® & News

Nearby

Air Quality

  Air Quality AQ Index Pollutant
Not available.

Snow Depth

Station Depth Elevation

Earthquake Activity

City Distance Mag. Time & Date
Minimum magnitude displayed is 2.5.

Coastal Water Temperatures

Place Temperature

Nearby Weather Stations